Terminal Aerodrome Forecast
Issued by NWS

Home | Current Version | Previous Version | Text Only | Print | Product List | Glossary On
Versions: 1 2 3 4 5 6 7 8 9 10 11 12 13 14 15 16 17 18 19
000
FTUS43 KPAH 242300
TAFCGI
TAF
KCGI 242321Z 2500/2524 21005KT P6SM BKN150
     FM251400 23009KT 2SM RA BR OVC015
     FM251900 26009KT 4SM -RA BR OVC015=

USA.gov is the U.S. government's official web portal to all federal, state and local government web resources and services.